createdAt,value
2023-03-29T00:01:06.767Z,1.03
2023-03-29T00:03:35.315Z,1.10
2023-03-29T00:06:05.750Z,1.40
2023-03-29T00:08:35.374Z,1.30
2023-03-29T00:11:04.129Z,1.20
2023-03-29T00:13:33.062Z,2.00
2023-03-29T00:16:01.551Z,1.83
2023-03-29T00:18:29.992Z,1.10
2023-03-29T00:20:59.914Z,2.00
2023-03-29T00:23:30.899Z,2.47
2023-03-29T00:25:59.774Z,1.20
2023-03-29T00:28:28.198Z,1.30
2023-03-29T00:31:06.621Z,1.43
2023-03-29T00:33:35.237Z,1.03
2023-03-29T00:36:04.695Z,1.13
2023-03-29T00:38:35.339Z,1.17
2023-03-29T00:41:05.172Z,1.17
2023-03-29T00:43:52.071Z,1.37
2023-03-29T00:46:20.575Z,1.50
2023-03-29T00:48:48.999Z,1.27
2023-03-29T00:51:19.593Z,1.30
2023-03-29T00:53:52.138Z,1.00
2023-03-29T00:56:25.240Z,1.17
2023-03-29T00:58:58.622Z,1.23
2023-03-29T01:01:34.260Z,1.30
2023-03-29T01:04:08.617Z,1.40
2023-03-29T01:06:43.598Z,1.13
2023-03-29T01:09:17.574Z,1.10
2023-03-29T01:11:50.551Z,0.90
2023-03-29T01:14:23.979Z,1.10
2023-03-29T01:16:53.526Z,0.97
2023-03-29T01:19:26.557Z,1.03
2023-03-29T01:22:04.027Z,1.20
2023-03-29T01:24:45.883Z,1.53
2023-03-29T01:27:22.945Z,1.13
2023-03-29T01:30:00.394Z,1.30
2023-03-29T01:32:35.503Z,1.00
2023-03-29T01:35:10.604Z,1.40
2023-03-29T01:37:42.729Z,1.20
2023-03-29T01:40:12.156Z,1.33
2023-03-29T01:42:49.091Z,1.20
2023-03-29T01:45:26.046Z,1.17
2023-03-29T01:48:01.231Z,1.00
2023-03-29T01:50:39.196Z,1.20
2023-03-29T01:53:11.393Z,1.73
2023-03-29T01:55:44.861Z,1.13
2023-03-29T01:58:17.826Z,1.10
2023-03-29T02:00:50.964Z,0.80
2023-03-29T02:03:22.089Z,1.23
2023-03-29T02:05:51.749Z,1.00
2023-03-29T02:08:23.266Z,1.40
2023-03-29T02:10:53.039Z,1.00
2023-03-29T02:13:21.838Z,1.27
2023-03-29T02:15:52.928Z,1.30
2023-03-29T02:18:21.791Z,1.20
2023-03-29T02:20:52.245Z,1.63
2023-03-29T02:23:27.441Z,1.30
2023-03-29T02:25:57.171Z,2.47
2023-03-29T02:28:28.277Z,1.10
2023-03-29T02:31:03.356Z,1.10
2023-03-29T02:33:42.240Z,1.20
2023-03-29T02:36:17.837Z,1.30
2023-03-29T02:38:47.661Z,1.20
2023-03-29T02:41:17.978Z,1.40
2023-03-29T02:43:48.526Z,1.23
2023-03-29T02:46:20.622Z,1.47
2023-03-29T02:48:53.286Z,1.30
2023-03-29T02:51:26.013Z,1.60
2023-03-29T02:54:00.584Z,0.97
2023-03-29T02:56:29.184Z,1.50
2023-03-29T02:58:57.529Z,1.27
2023-03-29T03:01:28.043Z,1.07
2023-03-29T03:03:56.605Z,1.27
2023-03-29T03:06:25.224Z,0.90
2023-03-29T03:08:53.861Z,1.27
2023-03-29T03:11:22.972Z,1.10
2023-03-29T03:13:52.686Z,1.47
2023-03-29T03:16:22.006Z,1.30
2023-03-29T03:18:53.935Z,1.33
2023-03-29T03:21:23.032Z,1.00
2023-03-29T03:23:52.119Z,1.17
2023-03-29T03:26:20.638Z,0.93
2023-03-29T03:28:49.071Z,1.30
2023-03-29T03:31:37.506Z,0.90
2023-03-29T03:34:16.557Z,1.40
2023-03-29T03:36:54.811Z,1.93
2023-03-29T03:39:24.035Z,1.13
2023-03-29T03:41:52.494Z,1.20
2023-03-29T03:44:21.273Z,1.00
2023-03-29T03:46:59.138Z,1.27
2023-03-29T03:49:29.275Z,1.50
2023-03-29T03:51:57.696Z,1.40
2023-03-29T03:54:26.225Z,1.40
2023-03-29T03:57:26.805Z,1.60
2023-03-29T03:59:55.365Z,1.30
2023-03-29T04:02:29.001Z,1.10
2023-03-29T04:05:03.148Z,1.40
2023-03-29T04:07:36.403Z,1.23
2023-03-29T04:10:25.865Z,1.48
2023-03-29T04:13:12.063Z,1.60
2023-03-29T04:16:01.748Z,1.90
2023-03-29T04:18:31.167Z,1.60
2023-03-29T04:21:02.791Z,1.53
2023-03-29T04:23:33.641Z,1.27
2023-03-29T04:26:02.023Z,1.40
2023-03-29T04:28:43.740Z,1.50
2023-03-29T04:31:17.083Z,1.33
2023-03-29T04:33:51.806Z,1.13
2023-03-29T04:36:22.307Z,1.43
2023-03-29T04:38:52.461Z,1.27
2023-03-29T04:41:21.811Z,1.20
2023-03-29T04:44:04.006Z,1.20
2023-03-29T04:46:33.450Z,1.27
2023-03-29T04:49:20.179Z,1.20
2023-03-29T04:51:54.530Z,1.20
2023-03-29T04:54:26.750Z,1.70
2023-03-29T04:57:18.546Z,1.30
2023-03-29T04:59:57.308Z,1.40
2023-03-29T05:02:44.749Z,1.17
2023-03-29T05:05:15.354Z,1.60
2023-03-29T05:07:46.646Z,1.50
2023-03-29T05:10:16.550Z,1.93
2023-03-29T05:12:45.559Z,1.53
2023-03-29T05:15:14.925Z,1.57
2023-03-29T05:17:44.115Z,1.40
2023-03-29T05:20:14.593Z,1.57
2023-03-29T05:22:46.553Z,1.40
2023-03-29T05:25:27.122Z,1.60
2023-03-29T05:27:55.504Z,1.47
2023-03-29T05:30:23.965Z,1.73
2023-03-29T05:33:05.968Z,2.07
2023-03-29T05:35:36.739Z,2.07
2023-03-29T05:38:10.824Z,1.97
2023-03-29T05:40:39.418Z,1.70
2023-03-29T05:43:28.323Z,1.50
2023-03-29T05:45:57.633Z,1.70
2023-03-29T05:48:27.651Z,1.97
2023-03-29T05:50:57.939Z,1.30
2023-03-29T05:53:29.722Z,1.43
2023-03-29T05:55:58.466Z,1.10
2023-03-29T05:58:29.094Z,1.37
2023-03-29T06:00:58.318Z,1.60
2023-03-29T06:03:44.148Z,1.30
2023-03-29T06:06:15.420Z,1.30
2023-03-29T06:08:46.679Z,1.40
2023-03-29T06:11:24.572Z,1.90
2023-03-29T06:14:23.521Z,1.60
2023-03-29T06:16:59.178Z,1.80
2023-03-29T06:19:27.801Z,2.10
2023-03-29T06:21:56.705Z,1.60
2023-03-29T06:24:30.090Z,1.80
2023-03-29T06:27:05.059Z,1.50
2023-03-29T06:29:33.535Z,1.60
2023-03-29T06:32:02.224Z,1.60
2023-03-29T06:34:46.391Z,1.73
2023-03-29T06:37:37.277Z,2.40
2023-03-29T06:40:23.108Z,1.47
2023-03-29T06:42:57.903Z,1.97
2023-03-29T06:45:32.360Z,2.10
2023-03-29T06:48:03.305Z,2.27
2023-03-29T06:50:33.242Z,2.03
2023-03-29T06:53:20.889Z,1.70
2023-03-29T06:55:58.015Z,2.07
2023-03-29T06:58:48.693Z,2.03
2023-03-29T07:01:40.170Z,2.03
2023-03-29T07:04:18.212Z,1.90
2023-03-29T07:07:20.948Z,2.40
2023-03-29T07:10:01.930Z,2.20
2023-03-29T07:12:51.876Z,2.27
2023-03-29T07:15:21.584Z,2.23
2023-03-29T07:18:08.059Z,3.13
2023-03-29T07:20:38.494Z,2.80
2023-03-29T07:23:09.647Z,2.27
2023-03-29T07:25:39.455Z,2.07
2023-03-29T07:28:09.604Z,2.50
2023-03-29T07:30:38.501Z,2.27
2023-03-29T07:33:14.629Z,2.53
2023-03-29T07:35:59.316Z,1.33
2023-03-29T07:38:28.332Z,1.60
2023-03-29T07:41:04.912Z,1.70
2023-03-29T07:43:35.639Z,1.30
2023-03-29T07:46:04.970Z,1.77
2023-03-29T07:48:37.289Z,1.63
2023-03-29T07:51:15.087Z,1.73
2023-03-29T07:53:49.298Z,1.40
2023-03-29T07:56:36.450Z,1.40
2023-03-29T07:59:17.058Z,1.33
2023-03-29T08:01:50.430Z,1.40
2023-03-29T08:04:33.457Z,1.50
2023-03-29T08:07:19.358Z,1.53
2023-03-29T08:10:12.413Z,1.20
2023-03-29T08:13:06.147Z,1.20
2023-03-29T08:15:52.447Z,1.77
2023-03-29T08:18:32.814Z,1.30
2023-03-29T08:21:05.369Z,1.40
2023-03-29T08:23:35.584Z,1.40
2023-03-29T08:26:20.818Z,1.30
2023-03-29T08:28:50.959Z,1.17
2023-03-29T08:31:24.828Z,1.40
2023-03-29T08:33:53.862Z,1.40
2023-03-29T08:36:47.328Z,1.57
2023-03-29T08:39:26.507Z,1.63
2023-03-29T08:42:31.902Z,1.13
2023-03-29T08:45:10.880Z,1.10
2023-03-29T08:47:53.896Z,1.27
2023-03-29T08:50:34.155Z,1.20
2023-03-29T08:53:11.767Z,1.10
2023-03-29T08:56:02.708Z,1.20
2023-03-29T08:59:04.019Z,1.10
2023-03-29T09:01:37.619Z,0.90
2023-03-29T09:04:11.453Z,0.90
2023-03-29T09:06:59.501Z,1.17
2023-03-29T09:09:36.920Z,1.50
2023-03-29T09:12:39.656Z,0.83
2023-03-29T09:15:15.523Z,0.90
2023-03-29T09:18:03.861Z,0.90
2023-03-29T09:20:43.528Z,0.60
2023-03-29T09:23:42.726Z,0.87
2023-03-29T09:26:42.984Z,0.97
2023-03-29T09:29:42.387Z,0.87
2023-03-29T09:32:21.095Z,0.90
2023-03-29T09:35:02.374Z,1.23
2023-03-29T09:37:35.596Z,1.20
2023-03-29T09:40:12.394Z,1.30
2023-03-29T09:42:56.268Z,1.03
2023-03-29T09:45:25.044Z,1.30
2023-03-29T09:47:58.999Z,0.90
2023-03-29T09:50:36.022Z,1.20
2023-03-29T09:53:10.273Z,1.17
2023-03-29T09:55:45.120Z,1.00
2023-03-29T09:58:32.144Z,1.13
2023-03-29T10:01:03.224Z,0.90
2023-03-29T10:03:35.090Z,1.10
2023-03-29T10:06:15.809Z,1.17
2023-03-29T10:08:55.110Z,1.20
2023-03-29T10:11:31.165Z,0.97
2023-03-29T10:14:02.939Z,1.03
2023-03-29T10:16:36.313Z,1.23
2023-03-29T10:19:18.630Z,0.90
2023-03-29T10:21:50.137Z,1.30
2023-03-29T10:24:24.893Z,1.37
2023-03-29T10:26:55.972Z,1.20
2023-03-29T10:29:25.326Z,1.20
2023-03-29T10:31:54.484Z,1.23
2023-03-29T10:34:28.251Z,1.70
2023-03-29T10:37:00.198Z,2.00
2023-03-29T10:39:34.121Z,1.60
2023-03-29T10:42:05.373Z,1.30
2023-03-29T10:44:36.272Z,1.30
2023-03-29T10:47:16.194Z,1.33
2023-03-29T10:49:47.694Z,1.90
2023-03-29T10:52:17.814Z,1.90
2023-03-29T10:54:48.587Z,1.43
2023-03-29T10:57:27.857Z,1.40
2023-03-29T11:00:02.706Z,1.50
2023-03-29T11:02:50.361Z,1.33
2023-03-29T11:05:29.239Z,1.27
2023-03-29T11:08:18.610Z,1.30
2023-03-29T11:10:58.060Z,1.40
2023-03-29T11:13:34.633Z,1.53
2023-03-29T11:16:15.020Z,1.60
2023-03-29T11:19:11.948Z,1.60
2023-03-29T11:21:46.305Z,2.20
2023-03-29T11:24:28.665Z,2.13
2023-03-29T11:27:14.118Z,1.77
2023-03-29T11:29:53.522Z,1.80
2023-03-29T11:32:30.467Z,2.00
2023-03-29T11:35:09.305Z,2.07
2023-03-29T11:37:44.011Z,1.67
2023-03-29T11:40:32.022Z,1.90
2023-03-29T11:43:05.538Z,1.63
2023-03-29T11:45:40.004Z,2.17
2023-03-29T11:48:19.096Z,1.80
2023-03-29T11:50:54.529Z,1.70
2023-03-29T11:53:28.875Z,2.27
2023-03-29T11:56:01.683Z,1.97
2023-03-29T11:58:38.730Z,2.13
2023-03-29T12:01:12.220Z,1.80
2023-03-29T12:03:47.105Z,1.77
2023-03-29T12:06:22.451Z,1.80
2023-03-29T12:08:56.763Z,2.53
2023-03-29T12:11:30.886Z,1.67
2023-03-29T12:14:06.106Z,1.77
2023-03-29T12:16:40.994Z,1.90
2023-03-29T12:19:17.432Z,2.50
2023-03-29T12:21:47.568Z,2.30
2023-03-29T12:24:20.568Z,3.03
2023-03-29T12:27:04.472Z,2.47
2023-03-29T12:29:50.493Z,2.40
2023-03-29T12:32:38.535Z,2.23
2023-03-29T12:35:37.918Z,2.87
2023-03-29T12:38:29.391Z,3.00
2023-03-29T12:41:20.288Z,2.40
2023-03-29T12:44:10.260Z,2.63
2023-03-29T12:47:03.872Z,2.33
2023-03-29T12:49:35.645Z,2.47
2023-03-29T12:52:07.700Z,2.70
2023-03-29T12:54:36.118Z,2.97
2023-03-29T12:57:21.316Z,2.53
2023-03-29T12:59:52.462Z,2.80
2023-03-29T13:02:37.376Z,3.47
2023-03-29T13:05:26.622Z,3.00
2023-03-29T13:07:56.187Z,3.10
2023-03-29T13:10:42.492Z,3.10
2023-03-29T13:13:18.207Z,3.33
2023-03-29T13:15:47.100Z,3.17
2023-03-29T13:18:56.653Z,3.63
2023-03-29T13:21:36.472Z,3.70
2023-03-29T13:24:20.263Z,3.67
2023-03-29T13:26:59.335Z,3.60
2023-03-29T13:29:52.527Z,3.00
2023-03-29T13:32:38.395Z,3.90
2023-03-29T13:35:18.467Z,3.87
2023-03-29T13:38:00.291Z,4.63
2023-03-29T13:40:47.040Z,3.63
2023-03-29T13:43:31.027Z,3.93
2023-03-29T13:46:17.878Z,3.10
2023-03-29T13:49:04.887Z,3.27
2023-03-29T13:51:40.738Z,3.43
2023-03-29T13:54:20.179Z,3.93
2023-03-29T13:56:59.354Z,4.30
2023-03-29T13:59:35.737Z,3.60
2023-03-29T14:02:05.849Z,4.43
2023-03-29T14:04:40.249Z,4.53
2023-03-29T14:07:10.825Z,5.43
2023-03-29T14:09:44.425Z,6.47
2023-03-29T14:12:15.904Z,5.83
2023-03-29T14:14:58.415Z,7.33
2023-03-29T14:17:28.137Z,7.87
2023-03-29T14:19:59.704Z,7.70
2023-03-29T14:22:32.582Z,6.93
2023-03-29T14:25:09.623Z,6.47
2023-03-29T14:27:38.504Z,6.30
2023-03-29T14:30:21.769Z,7.03
2023-03-29T14:32:52.508Z,6.27
2023-03-29T14:35:24.040Z,6.03
2023-03-29T14:37:52.742Z,6.33
2023-03-29T14:40:23.111Z,5.53
2023-03-29T14:42:52.236Z,5.80
2023-03-29T14:45:24.622Z,5.40
2023-03-29T14:47:53.716Z,5.03
2023-03-29T14:50:27.951Z,5.77
2023-03-29T14:52:58.932Z,4.93
2023-03-29T14:55:29.264Z,6.20
2023-03-29T14:58:00.311Z,5.97
2023-03-29T15:00:30.738Z,5.67
2023-03-29T15:03:01.890Z,5.50
2023-03-29T15:05:36.956Z,5.47
2023-03-29T15:08:07.488Z,4.30
2023-03-29T15:10:39.355Z,3.70
2023-03-29T15:13:09.308Z,3.67
2023-03-29T15:15:39.645Z,3.00
2023-03-29T15:18:11.370Z,3.80
2023-03-29T15:20:41.391Z,2.90
2023-03-29T15:23:21.263Z,3.77
2023-03-29T15:25:55.454Z,3.63
2023-03-29T15:28:28.526Z,3.27
2023-03-29T15:33:36.193Z,3.87
2023-03-29T15:36:06.816Z,3.63
2023-03-29T15:38:44.070Z,3.57
2023-03-29T15:41:15.661Z,2.67
2023-03-29T15:43:44.658Z,3.23
2023-03-29T15:46:14.796Z,3.83
2023-03-29T15:48:44.050Z,3.30
2023-03-29T15:51:13.422Z,3.37
2023-03-29T15:53:42.431Z,5.17
2023-03-29T15:56:16.330Z,3.20
2023-03-29T15:58:46.714Z,3.80
2023-03-29T16:01:34.514Z,3.13
2023-03-29T16:04:03.891Z,3.20
2023-03-29T16:06:32.888Z,3.50
2023-03-29T16:09:01.477Z,3.40
2023-03-29T16:11:30.077Z,3.70
2023-03-29T16:14:00.514Z,3.13
2023-03-29T16:16:28.898Z,3.30
2023-03-29T16:18:57.361Z,3.67
2023-03-29T16:21:25.921Z,3.50
2023-03-29T16:23:54.402Z,3.30
2023-03-29T16:26:23.231Z,3.07
2023-03-29T16:28:51.827Z,3.00
2023-03-29T16:31:23.644Z,2.50
2023-03-29T16:33:52.563Z,2.27
2023-03-29T16:36:20.908Z,2.17
2023-03-29T16:38:49.422Z,2.40
2023-03-29T16:41:18.945Z,2.07
2023-03-29T16:43:47.443Z,1.90
2023-03-29T16:46:15.820Z,2.67
2023-03-29T16:48:46.435Z,2.10
2023-03-29T16:51:14.860Z,2.17
2023-03-29T16:53:43.240Z,2.20
2023-03-29T16:56:12.190Z,2.50
2023-03-29T16:58:40.967Z,2.33
2023-03-29T17:01:11.007Z,2.30
2023-03-29T17:03:39.539Z,2.53
2023-03-29T17:06:11.279Z,1.93
2023-03-29T17:08:42.185Z,2.87
2023-03-29T17:11:11.931Z,2.27
2023-03-29T17:13:40.498Z,2.47
2023-03-29T17:16:09.511Z,1.97
2023-03-29T17:18:38.059Z,2.30
2023-03-29T17:21:07.372Z,2.60
2023-03-29T17:23:37.274Z,2.93
2023-03-29T17:26:07.111Z,2.37
2023-03-29T17:28:36.048Z,2.40
2023-03-29T17:31:07.154Z,3.50
2023-03-29T17:33:36.327Z,2.37
2023-03-29T17:36:06.973Z,3.20
2023-03-29T17:38:38.210Z,2.50
2023-03-29T17:41:08.065Z,2.93
2023-03-29T17:43:36.526Z,3.73
2023-03-29T17:46:05.372Z,2.60
2023-03-29T17:48:34.223Z,3.13
2023-03-29T17:51:02.730Z,2.63
2023-03-29T17:53:31.134Z,2.80
2023-03-29T17:56:01.463Z,2.73
2023-03-29T17:58:30.286Z,2.47
2023-03-29T18:00:58.694Z,2.93
2023-03-29T18:03:27.415Z,3.17
2023-03-29T18:05:56.676Z,3.30
2023-03-29T18:08:25.146Z,2.90
2023-03-29T18:10:53.607Z,2.73
2023-03-29T18:13:25.591Z,2.90
2023-03-29T18:15:57.939Z,3.47
2023-03-29T18:18:27.285Z,2.40
2023-03-29T18:20:55.856Z,2.57
2023-03-29T18:23:24.277Z,2.77
2023-03-29T18:25:52.856Z,3.83
2023-03-29T18:28:25.154Z,3.30
2023-03-29T18:30:53.739Z,3.27
2023-03-29T18:33:22.260Z,2.70
2023-03-29T18:35:51.609Z,2.43
2023-03-29T18:38:21.685Z,2.87
2023-03-29T18:40:50.501Z,2.93
2023-03-29T18:43:19.225Z,3.33
2023-03-29T18:45:49.240Z,4.00
2023-03-29T18:48:17.744Z,3.90
2023-03-29T18:50:47.079Z,3.90
2023-03-29T18:53:16.194Z,4.23
2023-03-29T18:55:45.563Z,4.47
2023-03-29T18:58:15.090Z,3.57
2023-03-29T19:00:44.108Z,3.90
2023-03-29T19:03:13.991Z,4.30
2023-03-29T19:05:42.737Z,4.53
2023-03-29T19:08:11.349Z,4.23
2023-03-29T19:10:40.772Z,4.97
2023-03-29T19:13:09.176Z,4.27
2023-03-29T19:18:08.879Z,4.13
2023-03-29T19:20:39.644Z,4.53
2023-03-29T19:23:08.219Z,4.03
2023-03-29T19:25:36.772Z,4.97
2023-03-29T19:28:05.786Z,5.20
2023-03-29T19:30:36.663Z,4.57
2023-03-29T19:33:05.108Z,4.77
2023-03-29T19:35:33.592Z,4.20
2023-03-29T19:38:03.452Z,4.43
2023-03-29T19:40:31.876Z,4.93
2023-03-29T19:43:00.257Z,3.97
2023-03-29T19:45:28.755Z,4.33
2023-03-29T19:47:58.068Z,4.23
2023-03-29T19:50:27.876Z,4.70
2023-03-29T19:52:57.319Z,4.50
2023-03-29T19:55:27.341Z,4.77
2023-03-29T19:57:55.749Z,4.47
2023-03-29T20:00:25.255Z,5.00
2023-03-29T20:02:55.720Z,5.23
2023-03-29T20:05:24.356Z,4.67
2023-03-29T20:07:52.894Z,4.80
2023-03-29T20:10:21.532Z,3.97
2023-03-29T20:12:51.266Z,4.80
2023-03-29T20:15:20.224Z,6.10
2023-03-29T20:17:48.656Z,5.03
2023-03-29T20:20:17.219Z,7.33
2023-03-29T20:22:47.821Z,7.60
2023-03-29T20:25:16.164Z,7.17
2023-03-29T20:27:45.486Z,6.67
2023-03-29T20:30:15.824Z,5.07
2023-03-29T20:32:44.301Z,4.60
2023-03-29T20:35:12.832Z,3.63
2023-03-29T20:37:41.211Z,4.50
2023-03-29T20:40:11.378Z,4.50
2023-03-29T20:42:39.818Z,3.57
2023-03-29T20:45:18.793Z,4.20
2023-03-29T20:53:43.180Z,3.60
2023-03-29T20:56:13.256Z,3.20
2023-03-29T20:58:42.244Z,4.27
2023-03-29T21:01:12.435Z,3.20
2023-03-29T21:03:42.732Z,3.77
2023-03-29T21:06:14.125Z,2.67
2023-03-29T21:08:42.718Z,3.37
2023-03-29T21:11:13.205Z,2.83
2023-03-29T21:13:42.263Z,3.10
2023-03-29T21:16:11.456Z,3.67
2023-03-29T21:18:43.241Z,3.67
2023-03-29T21:21:13.160Z,3.20
2023-03-29T21:23:41.833Z,3.80
2023-03-29T21:26:10.164Z,2.93
2023-03-29T21:28:38.796Z,2.97
2023-03-29T21:31:07.572Z,3.47
2023-03-29T21:33:36.608Z,3.17
2023-03-29T21:36:06.918Z,3.03
2023-03-29T21:38:35.695Z,3.57
2023-03-29T21:41:04.361Z,3.87
2023-03-29T21:43:33.272Z,3.43
2023-03-29T21:46:02.725Z,3.00
2023-03-29T21:48:32.473Z,3.90
2023-03-29T21:51:01.167Z,3.07
2023-03-29T21:53:31.131Z,3.00
2023-03-29T21:55:59.651Z,3.77
2023-03-29T21:58:28.213Z,3.07
2023-03-29T22:00:56.999Z,3.00
2023-03-29T22:03:25.456Z,3.67
2023-03-29T22:05:58.920Z,3.03
2023-03-29T22:08:27.804Z,4.10
2023-03-29T22:10:58.109Z,4.40
2023-03-29T22:13:28.242Z,3.27
2023-03-29T22:15:59.390Z,3.93
2023-03-29T22:18:30.194Z,3.70
2023-03-29T22:20:58.864Z,3.40
2023-03-29T22:23:27.094Z,3.70
2023-03-29T22:25:55.426Z,3.23
2023-03-29T22:28:25.093Z,4.03
2023-03-29T22:30:53.481Z,2.90
2023-03-29T22:33:21.732Z,3.50
2023-03-29T22:35:50.039Z,2.73
2023-03-29T22:38:18.355Z,3.10
2023-03-29T22:40:46.743Z,3.13
2023-03-29T22:43:14.989Z,4.10
2023-03-29T22:45:44.892Z,3.07
2023-03-29T22:48:13.262Z,3.30
2023-03-29T22:50:43.015Z,4.00
2023-03-29T22:53:11.680Z,2.60
2023-03-29T22:55:40.019Z,3.73
2023-03-29T22:58:08.879Z,2.90
2023-03-29T23:00:37.334Z,3.07
2023-03-29T23:03:07.122Z,3.00
2023-03-29T23:05:35.647Z,3.47
2023-03-29T23:08:03.979Z,2.63
2023-03-29T23:10:32.374Z,2.87
2023-03-29T23:13:08.938Z,4.13
2023-03-29T23:15:37.659Z,3.10
2023-03-29T23:18:07.651Z,2.43
2023-03-29T23:20:36.298Z,2.90
2023-03-29T23:23:04.738Z,2.23
2023-03-29T23:25:33.130Z,2.80
2023-03-29T23:28:01.455Z,2.87
2023-03-29T23:30:31.020Z,3.07
2023-03-29T23:33:00.215Z,2.83
2023-03-29T23:35:30.337Z,2.90
2023-03-29T23:37:59.830Z,2.53
2023-03-29T23:40:28.322Z,2.93
2023-03-29T23:42:59.576Z,2.43
2023-03-29T23:45:28.753Z,3.20
2023-03-29T23:47:57.939Z,2.20
2023-03-29T23:50:28.684Z,2.13
2023-03-29T23:52:58.457Z,2.60
2023-03-29T23:55:26.869Z,2.90
2023-03-29T23:57:55.282Z,3.27
